Southwestern Research Station, Arizona Weather observations

Data are for 10 minute period ending at time listed.
 Day   Time   Solar   Ave.   Ave.  Ave.  Vector  Max.   Baro.   Total    
  of    of     Rad.   Air    Rel.  Wind   Wind   Wind  Press.  Precip.   
Year   Day            Temp.  Hum.  Speed  Dir.   Gust                    
2026   (PST)  Kw/m2    F      %     mph   deg.    mph    mb.     in.     
-------------------------------------------------------------------------
 124    6:20   0.06   53.8    50    0.9     9     4.0   832.6    0.00 
 124    6:30   0.06   54.2    48    0.7    36     2.9   832.8    0.00 
 124    6:40   0.12   55.6    39    1.2    50     4.1   833.0    0.00 
 124    6:50   0.19   56.9    41    1.7    70     5.6   833.0    0.00 
 124    7:00   0.13   58.6    41    0.6   180     4.0   833.1    0.00 
 124    7:10   0.17   58.6    35    1.4    96     3.2   833.2    0.00 
 124    7:20   0.20   60.8    33    1.5    96     5.7   833.3    0.00 
 124    7:30   0.29   62.5    27    1.4   103     5.0   833.6    0.00 
 124    7:40   0.37   64.8    24    2.3    95     5.5   833.8    0.00 
 124    7:50   0.40   65.7    23    2.6    88     8.0   833.8    0.00 
 124    8:00   0.41   65.8    23    2.4    90     6.1   833.8    0.00 
 124    8:10   0.39   66.0    23    3.0   100     8.8   833.8    0.00 
 124    8:20   0.46   66.4    23    3.0    98     6.9   833.8    0.00 
 124    8:30   0.49   67.0    23    2.3   105     7.3   833.8    0.00 
 124    8:40   0.60   68.0    23    2.3   112     7.2   833.9    0.00 
 124    8:50   0.61   68.6    23    2.6   103     6.6   834.0    0.00 
 124    9:00   0.65   68.3    22    2.5   110     6.1   833.9    0.00 
 124    9:10   0.55   68.7    22    3.2   112     9.2   833.7    0.00 
 124    9:20   0.65   69.0    22    2.8   119     8.3   833.8    0.00 
 124    9:30   0.65   70.1    20    4.3   101     8.2   833.7    0.00 
 124    9:40   0.74   70.4    20    3.7   110     9.2   833.7    0.00 
 124    9:50   0.61   70.9    19    4.2    96    10.2   833.7    0.00 
 124   10:00   0.80   71.6    19    3.4   108     9.3   833.8    0.00 
 124   10:10   0.82   72.6    18    2.9    89     9.0   833.7    0.00 
 124   10:20   0.84   73.1    17    4.2    97     9.1   833.6    0.00 
 124   10:30   0.77   72.5    15    3.2   150     9.1   833.6    0.00 
 124   10:40   0.81   74.0    15    3.9   343    14.2   833.4    0.00 
 124   10:50   0.86   75.0    14    3.6   301    10.7   833.4    0.00 
 124   11:00   0.92   76.4    14    2.8     2     9.9   833.4    0.00 
 124   11:10   0.84   75.1    14    3.4   208     9.5   833.5    0.00 
 124   11:20   0.97   74.0    14    5.7   201    16.7   833.5    0.00 
 124   11:30   0.73   73.7    15    3.8   203    12.4   833.4    0.00 
 124   11:40   0.95   73.8    16    3.1   202     7.4   833.2    0.00 
 124   11:50   0.91   74.2    15    5.5   219    13.7   833.3    0.00 
 124   12:00   0.91   73.7    16    4.6   217    14.0   833.2    0.00 
 124   12:10   0.87   74.8    16    2.9   230     8.9   833.2    0.00 
 124   12:20   0.86   75.0    17    2.6   232     9.2   833.1    0.00 
 124   12:30   0.86   75.3    17    3.1   246    11.2   833.0    0.00 
 124   12:40   0.84   75.0    18    3.1   221    10.1   832.9    0.00 
 124   12:50   0.86   75.2    17    2.3   270     7.5   832.9    0.00 
 124   13:00   0.80   75.5    17    2.8   203    10.4   832.8    0.00 
 124   13:10   0.76   76.4    18    2.8   270    11.5   832.7    0.00 
 124   13:20   0.82   76.7    17    3.9   296    10.5   832.7    0.00 
 124   13:30   0.88   77.5    18    3.7   292    10.5   832.8    0.00 
 124   13:40   0.82   76.2    19    3.3   207     9.3   832.7    0.00 
 124   13:50   0.77   75.3    20    3.5   244    11.0   832.7    0.00 
 124   14:00   0.53   75.2    20    4.2   192    11.8   832.5    0.00 
 124   14:10   0.52   74.3    20    1.7   219     6.1   832.3    0.00 
 124   14:20   0.49   75.3    20    3.1   316     9.8   832.4    0.00 
 124   14:30   0.49   74.5    20    4.5   195    12.9   832.3    0.00 
 124   14:40   0.44   74.1    20    3.7   208    13.2   832.3    0.00 
 124   14:50   0.44   75.1    19    3.1   304    13.4   832.3    0.00 
 124   15:00   0.41   75.3    18    3.4   276    10.7   832.2    0.00 
 124   15:10   0.40   74.7    18    4.1   311    14.1   832.0    0.00 
 124   15:20   0.32   74.3    18    4.0   311    17.4   832.0    0.00 
 124   15:30   0.34   74.1    17    4.3   288    12.2   831.8    0.00 
 124   15:40   0.33   74.0    17    4.0   293    17.4   831.9    0.00 
 124   15:50   0.29   73.7    17    3.8   292    13.5   832.1    0.00 
 124   16:00   0.28   73.1    16    3.9   308    10.7   832.0    0.00 
 124   16:10   0.33   73.2    16    3.1   301    15.1   831.7    0.00 
 124   16:20   0.20   72.4    16    4.1   297    11.0   831.7    0.00 
 124   16:30   0.20   71.6    17    4.3   311    12.3   831.8    0.00 
 124   16:40   0.18   71.5    17    2.5   252     7.7   831.9    0.00 
 124   16:50   0.16   71.1    18    2.5   284     8.3   832.0    0.00 
 124   17:00   0.19   70.9    18    3.1   306    13.3   832.0    0.00 
 124   17:10   0.18   71.1    18    2.6   282     8.8   832.1    0.00 
 124   17:20   0.13   69.9    19    2.9   287     8.3   832.2    0.00 
 124   17:30   0.13   69.6    20    3.0   264    11.7   832.2    0.00 
 124   17:40   0.10   69.0    20    2.3   252     8.0   832.2    0.00 
 124   17:50   0.07   68.5    20    2.9   290     7.2   832.2    0.00 
 124   18:00   0.06   67.9    22    1.9   331     9.4   832.3    0.00 
 124   18:10   0.04   67.2    25    1.4   295     6.8   832.4    0.00 
 124   18:20   0.04   66.7    26    1.2   276     5.6   832.3    0.00 
 124   18:30   0.04   66.3    26    1.6   202     7.1   832.3    0.00 
 124   18:40   0.04   65.9    27    2.1   310     6.5   832.3    0.00 
 124   18:50   0.02   65.3    28    1.3   318     6.0   832.1    0.00 
 124   19:00   0.01   64.3    30    0.7   260     3.1   832.0    0.00 
 124   19:10   0.00   63.1    32    0.8   319     5.0   832.2    0.00 
 124   19:20   0.00   62.8    32    0.7   300     3.9   832.5    0.00 
 124   19:30   0.00   62.3    34    0.3   267     2.1   832.6    0.00 
 124   19:40   0.00   61.4    37    0.1   292     2.4   832.4    0.00 
 124   19:50   0.00   60.7    37    0.6   301     6.2   832.4    0.00 
 124   20:00   0.00   60.4    37    0.2   278     1.6   832.5    0.00 
 124   20:10   0.00   59.9    38    0.4   301     3.1   832.7    0.00 
 124   20:20   0.00   59.3    39    0.4   291     2.9   832.7    0.00 
 124   20:30   0.00   58.7    40    0.3   285     2.3   833.0    0.00 
 124   20:40   0.00   57.7    43    0.3   252     2.0   833.0    0.00 
 124   20:50   0.00   56.5    44    0.3   256     2.0   833.2    0.00 
 124   21:00   0.00   55.7    46    0.2   264     2.0   833.1    0.00 
 124   21:10   0.00   54.8    49    0.3   264     3.0   833.2    0.00 
 124   21:20   0.00   54.3    50    0.2   254     1.5   833.2    0.00 
 124   21:30   0.00   54.1    51    0.7   311     3.1   833.1    0.00 
 124   21:40   0.00   54.8    49    0.4   338     5.5   832.6    0.00 
 124   21:50   0.00   54.7    52    0.0    32     0.4   832.7    0.00 
 124   22:00   0.00   55.5    45    0.8   307     4.5   832.6    0.00 
 124   22:10   0.00   57.3    40    2.0   327     5.6   832.8    0.00 
 124   22:20   0.00   58.2    38    1.7   319     4.2   832.5    0.00 
 124   22:30   0.00   58.2    37    0.5   308     3.7   832.5    0.00 
 124   22:40   0.00   57.8    37    1.8   306     8.0   832.7    0.00 
 124   22:50   0.00   58.3    36    1.6   315     7.3   832.5    0.00 
 124   23:00   0.00   59.0    34    2.6   314     9.5   832.5    0.00 
 124   23:10   0.00   58.9    35    2.6   309     8.0   832.3    0.00 
 124   23:20   0.00   59.1    35    3.1   298     9.1   832.4    0.00 
 124   23:30   0.00   59.1    35    3.1   296    14.3   832.4    0.00 
 124   23:40   0.00   59.3    34    4.1   300    11.2   832.4    0.00 
 124   23:50   0.00   59.5    33    4.3   307    11.7   832.4    0.00 
 125    0:00   0.00   59.5    32    4.5   314    14.2   832.4    0.00 
 125    0:10   0.00   59.5    32    3.9   313    12.4   832.4    0.00 
 125    0:20   0.00   59.4    32    4.2   310    12.1   832.2    0.00 
 125    0:30   0.00   59.5    32    3.3   309    10.2   832.2    0.00 
 125    0:40   0.00   59.3    32    2.8   313     9.0   832.1    0.00 
 125    0:50   0.00   59.3    32    3.6   312     9.5   832.1    0.00 
 125    1:00   0.00   58.9    32    3.1   306     8.3   832.2    0.00 
 125    1:10   0.00   58.7    34    1.4   316     5.0   832.2    0.00 
 125    1:20   0.00   58.4    37    2.9   302     8.3   832.1    0.00 
 125    1:30   0.00   58.5    40    3.4   312     9.4   831.7    0.00 
 125    1:40   0.00   58.2    40    3.3   318     8.8   831.6    0.00 
 125    1:50   0.00   58.0    42    1.3   313     5.0   832.0    0.00 
 125    2:00   0.00   58.2    41    3.3   310    10.7   831.9    0.00 
 125    2:10   0.00   58.0    40    2.8   304     9.2   831.8    0.00 
 125    2:20   0.00   57.2    43    3.0   292    11.7   831.8    0.00 
 125    2:30   0.00   56.7    45    1.8   274     8.3   831.7    0.00 
 125    2:40   0.00   56.4    46    1.4   326     6.7   831.5    0.00 
 125    2:50   0.00   56.7    44    2.4   296     9.0   831.4    0.00 
 125    3:00   0.00   57.0    43    2.9   304     9.6   831.3    0.00 
 125    3:10   0.00   56.7    44    2.1   322     5.8   831.2    0.00 
 125    3:20   0.00   56.3    46    1.6   324     5.0   831.3    0.00 
 125    3:30   0.00   56.2    45    2.7   314     8.0   831.3    0.00 
 125    3:40   0.00   56.2    46    1.9   317     5.8   831.3    0.00 
 125    3:50   0.00   55.9    49    0.6   342     3.9   831.3    0.00 
 125    4:00   0.00   55.7    50    1.7   332     4.1   831.2    0.00 
 125    4:10   0.00   55.8    48    0.6   340     3.3   831.1    0.00 
 125    4:20   0.00   56.2    42    1.8   317    10.9   831.0    0.00 
 125    4:30   0.00   57.6    35    1.7   313     4.7   830.7    0.00 
 125    4:40   0.00   57.5    36    0.7   305     4.9   830.3    0.00 
 125    4:50   0.00   56.8    39    0.1   172     1.0   830.2    0.00 
 125    5:00   0.00   55.8    47    0.4   175     2.1   830.2    0.00 
 125    5:10   0.00   55.3    50    0.7   175     3.4   830.1    0.00 
 125    5:20   0.00   54.8    54    1.5   152     4.0   830.4    0.00 
 125    5:30   0.00   51.9    72    1.7   188     6.0   830.4    0.00 
 125    5:40   0.01   53.0    63    1.7   197     7.4   830.4    0.00 
 125    5:50   0.01   53.5    64    1.5   159     6.5   830.4    0.00 
 125    6:00   0.01   51.1    78    0.5    82     4.8   830.4    0.00 
 125    6:10   0.02   50.2    80    0.8   124     4.7   830.6    0.01 

Return to Southwestern Research Station graphs page.


Western Regional Climate Center,wrcc@dri.edu